Time;durP1;ratioP1;P1;durP2;ratioP2;P2;SDS_P1;SDS_P2;PMS_P1;PMS_P2;Temp;Humidity;BMP_temperature;BMP_pressure;BME280_temperature;BME280_humidity;BME280_pressure;Samples;Min_cycle;Max_cycle;Signal;HPM_P1;HPM_P2
2021/07/09 10:50:05;;;;;;;3.47;2.20;;;;;;;;;;918267;23;20310;-89
2021/07/09 11:09:37;;;;;;;4.47;2.30;;;;;;;;;;5002349;28;20568;-91
2021/07/09 11:12:03;;;;;;;3.65;2.35;;;;;;;;;;4978498;28;20125;-92
2021/07/09 11:17:51;;;;;;;2.53;1.88;;;;;;;;;;4976731;28;20101;-92
2021/07/09 11:20:18;;;;;;;4.25;2.08;;;;;;;;;;4975936;28;20117;-93
2021/07/09 11:22:43;;;;;;;4.00;1.70;;;;;;;;;;4990550;28;20022;-92
2021/07/09 11:25:10;;;;;;;2.67;2.10;;;;;;;;;;4970841;28;20540;-94
2021/07/09 11:27:43;;;;;;;2.70;1.90;;;;;;;;;;4963007;28;20538;-92
2021/07/09 11:30:08;;;;;;;2.75;1.98;;;;;;;;;;4977723;28;20081;-92
2021/07/09 11:32:34;;;;;;;2.83;1.80;;;;;;;;;;4978927;28;20494;-92
2021/07/09 11:35:00;;;;;;;4.93;2.05;;;;;;;;;;4983155;28;20133;-92
2021/07/09 11:37:28;;;;;;;3.03;1.90;;;;;;;;;;4966070;28;20030;-92
2021/07/09 11:39:57;;;;;;;6.68;1.77;;;;;;;;;;4973668;28;20039;-93
2021/07/09 11:42:24;;;;;;;3.47;1.75;;;;;;;;;;4967639;28;20030;-93
2021/07/09 11:44:57;;;;;;;3.60;1.80;;;;;;;;;;4981680;28;20045;-94
2021/07/09 11:47:31;;;;;;;3.50;1.70;;;;;;;;;;4967844;28;20034;-93
2021/07/09 11:50:00;;;;;;;2.35;1.80;;;;;;;;;;4991566;28;20030;-92
2021/07/09 11:52:34;;;;;;;2.42;1.90;;;;;;;;;;4973047;28;20050;-93
2021/07/09 11:55:04;;;;;;;1.75;1.40;;;;;;;;;;4961336;28;20487;-93
2021/07/09 11:57:32;;;;;;;3.17;1.88;;;;;;;;;;4960067;28;20035;-93
2021/07/09 12:00:03;;;;;;;4.78;1.80;;;;;;;;;;4970402;28;20031;-93
2021/07/09 12:02:30;;;;;;;2.22;1.60;;;;;;;;;;4972110;28;20061;-92
2021/07/09 12:05:13;;;;;;;2.78;1.80;;;;;;;;;;4969919;28;20031;-92
2021/07/09 12:07:46;;;;;;;2.95;1.70;;;;;;;;;;4967596;28;20034;-91
2021/07/09 12:10:17;;;;;;;2.00;1.80;;;;;;;;;;4968418;28;20027;-91
2021/07/09 12:12:45;;;;;;;2.60;1.80;;;;;;;;;;4959055;28;20027;-93
2021/07/09 12:15:14;;;;;;;2.03;1.60;;;;;;;;;;4963262;28;20041;-91
2021/07/09 12:17:46;;;;;;;2.72;1.35;;;;;;;;;;4971501;28;20043;-91
2021/07/09 12:20:16;;;;;;;3.13;1.65;;;;;;;;;;4965310;28;20078;-91
2021/07/09 12:23:04;;;;;;;2.33;1.73;;;;;;;;;;4960450;28;20031;-91
2021/07/09 12:25:42;;;;;;;3.13;1.50;;;;;;;;;;4961187;28;20039;-91
2021/07/09 12:28:14;;;;;;;2.90;1.30;;;;;;;;;;4960619;28;20034;-91
2021/07/09 12:30:48;;;;;;;4.78;1.70;;;;;;;;;;4968170;28;20490;-92
2021/07/09 12:33:30;;;;;;;3.42;1.70;;;;;;;;;;4971985;28;20484;-92
2021/07/09 12:36:14;;;;;;;3.15;1.63;;;;;;;;;;4963277;28;20987;-90
2021/07/09 12:39:26;;;;;;;3.15;1.70;;;;;;;;;;4966116;28;20395;-91
2021/07/09 12:42:12;;;;;;;3.17;1.60;;;;;;;;;;4962096;28;20137;-90
2021/07/09 12:45:00;;;;;;;2.20;1.58;;;;;;;;;;4957291;28;20247;-91
2021/07/09 12:47:26;;;;;;;1.60;1.48;;;;;;;;;;4951656;28;20043;-92
2021/07/09 12:50:18;;;;;;;2.60;1.50;;;;;;;;;;4964346;28;20049;-91
2021/07/09 12:53:12;;;;;;;2.47;1.63;;;;;;;;;;4975266;28;20402;-91
2021/07/09 12:55:56;;;;;;;2.05;1.45;;;;;;;;;;4983656;28;20035;-91
2021/07/09 12:58:29;;;;;;;2.33;1.80;;;;;;;;;;4983657;28;20026;-90
2021/07/09 13:01:06;;;;;;;1.92;1.65;;;;;;;;;;4974887;28;20023;-90
2021/07/09 13:03:44;;;;;;;4.43;1.70;;;;;;;;;;4987431;28;20109;-91
2021/07/09 13:06:12;;;;;;;2.05;1.63;;;;;;;;;;4969687;28;20025;-90
2021/07/09 13:08:41;;;;;;;3.70;1.58;;;;;;;;;;4975344;28;20022;-90
2021/07/09 13:11:21;;;;;;;1.80;1.52;;;;;;;;;;4974699;28;20509;-90
2021/07/09 13:13:52;;;;;;;2.03;1.42;;;;;;;;;;4974834;28;20098;-89
2021/07/09 13:16:25;;;;;;;3.78;1.70;;;;;;;;;;4969119;28;20030;-90
2021/07/09 13:18:59;;;;;;;2.63;1.50;;;;;;;;;;4992147;28;20029;-91
2021/07/09 13:21:28;;;;;;;1.88;1.40;;;;;;;;;;4979010;28;20474;-91
2021/07/09 13:24:11;;;;;;;2.53;1.80;;;;;;;;;;4971813;28;20026;-91
2021/07/09 13:26:52;;;;;;;2.88;1.67;;;;;;;;;;4973784;28;20562;-90
2021/07/09 13:29:27;;;;;;;1.40;1.30;;;;;;;;;;4974948;28;20042;-90
2021/07/09 13:32:02;;;;;;;1.85;1.45;;;;;;;;;;4971469;28;20122;-90
2021/07/09 13:34:29;;;;;;;2.70;1.50;;;;;;;;;;4961879;28;20072;-91
2021/07/09 13:36:58;;;;;;;2.65;1.52;;;;;;;;;;4988938;28;20613;-90
2021/07/09 13:39:23;;;;;;;2.85;1.52;;;;;;;;;;4974506;28;20025;-90
2021/07/09 13:41:49;;;;;;;2.28;1.40;;;;;;;;;;4970482;28;20015;-91
2021/07/09 13:44:14;;;;;;;2.47;1.50;;;;;;;;;;4965594;28;20022;-90
2021/07/09 13:46:41;;;;;;;2.47;1.50;;;;;;;;;;4972789;28;20109;-90
2021/07/09 13:49:09;;;;;;;1.73;1.38;;;;;;;;;;4985206;28;20026;-90
2021/07/09 13:51:35;;;;;;;1.75;1.30;;;;;;;;;;4991993;28;20085;-90
2021/07/09 13:54:00;;;;;;;2.72;1.40;;;;;;;;;;4987450;28;20042;-91
2021/07/09 13:56:26;;;;;;;3.63;1.50;;;;;;;;;;4985532;28;20018;-89
2021/07/09 13:58:51;;;;;;;5.13;1.48;;;;;;;;;;4967268;28;20038;-90
2021/07/09 14:01:17;;;;;;;1.95;1.50;;;;;;;;;;4990005;28;20034;-90
2021/07/09 14:03:43;;;;;;;2.80;1.48;;;;;;;;;;4965200;28;20023;-90
2021/07/09 14:06:11;;;;;;;1.50;1.40;;;;;;;;;;4981541;28;20110;-89
2021/07/09 14:08:40;;;;;;;1.88;1.40;;;;;;;;;;4974588;28;20026;-90
2021/07/09 14:11:06;;;;;;;4.13;1.50;;;;;;;;;;4991635;28;20040;-89
2021/07/09 14:13:34;;;;;;;2.38;1.38;;;;;;;;;;4961681;28;20402;-89
2021/07/09 14:16:00;;;;;;;1.50;1.30;;;;;;;;;;4986746;28;20113;-90
2021/07/09 14:18:26;;;;;;;2.50;1.15;;;;;;;;;;4981045;28;20053;-90
2021/07/09 14:20:53;;;;;;;6.38;1.70;;;;;;;;;;4974341;28;20411;-91
2021/07/09 14:23:19;;;;;;;4.75;1.50;;;;;;;;;;4972651;28;20030;-90
2021/07/09 14:25:45;;;;;;;3.53;1.35;;;;;;;;;;4989223;28;20022;-90
2021/07/09 14:28:11;;;;;;;1.33;1.10;;;;;;;;;;4991614;28;20209;-90
2021/07/09 14:30:41;;;;;;;2.00;1.30;;;;;;;;;;4972777;28;20033;-89
2021/07/09 14:33:08;;;;;;;1.52;1.30;;;;;;;;;;4961286;28;20066;-90
2021/07/09 14:35:35;;;;;;;1.52;1.15;;;;;;;;;;4958508;28;20034;-90
2021/07/09 14:38:02;;;;;;;1.42;1.02;;;;;;;;;;4993767;28;20062;-89
2021/07/09 14:40:28;;;;;;;1.65;1.20;;;;;;;;;;4984120;28;20221;-89
2021/07/09 14:42:58;;;;;;;2.45;1.30;;;;;;;;;;4970331;28;20109;-89
2021/07/09 14:45:24;;;;;;;3.42;1.50;;;;;;;;;;4968191;28;20026;-90
2021/07/09 14:47:50;;;;;;;2.20;1.10;;;;;;;;;;4989990;28;20033;-90
2021/07/09 14:50:18;;;;;;;2.30;1.40;;;;;;;;;;4977177;28;20023;-89
2021/07/09 14:52:44;;;;;;;2.75;1.40;;;;;;;;;;4995237;28;20047;-89
2021/07/09 14:55:11;;;;;;;3.15;1.38;;;;;;;;;;4990542;28;20030;-90
2021/07/09 14:57:38;;;;;;;8.18;1.48;;;;;;;;;;4977142;28;20068;-88
2021/07/09 15:00:06;;;;;;;2.72;1.05;;;;;;;;;;4993361;28;20041;-90
2021/07/09 15:02:32;;;;;;;3.97;1.38;;;;;;;;;;4993683;28;20038;-90
2021/07/09 15:04:57;;;;;;;4.28;1.40;;;;;;;;;;4976077;28;20449;-89
2021/07/09 15:07:23;;;;;;;1.70;1.15;;;;;;;;;;4983683;28;20386;-90
2021/07/09 15:09:48;;;;;;;4.15;1.10;;;;;;;;;;4994652;28;20030;-89
2021/07/09 15:12:14;;;;;;;2.17;1.30;;;;;;;;;;4977371;28;20061;-89
2021/07/09 15:14:40;;;;;;;1.20;1.10;;;;;;;;;;4993361;28;20046;-89
2021/07/09 15:17:05;;;;;;;1.60;1.17;;;;;;;;;;4963855;28;20077;-89
2021/07/09 15:19:32;;;;;;;1.20;0.93;;;;;;;;;;4977333;28;20538;-89
2021/07/09 15:21:58;;;;;;;2.40;1.30;;;;;;;;;;4973925;28;20034;-87
2021/07/09 15:24:23;;;;;;;2.03;1.15;;;;;;;;;;4993081;28;20489;-89
2021/07/09 15:26:50;;;;;;;1.40;1.25;;;;;;;;;;4976629;28;20034;-89
2021/07/09 15:29:16;;;;;;;1.92;1.30;;;;;;;;;;4994104;28;20435;-89
2021/07/09 15:31:41;;;;;;;2.05;1.05;;;;;;;;;;4974746;28;20559;-89
2021/07/09 15:34:07;;;;;;;3.42;1.17;;;;;;;;;;4976915;28;20038;-89
2021/07/09 15:36:33;;;;;;;1.65;1.13;;;;;;;;;;4976788;28;20053;-90
2021/07/09 15:38:58;;;;;;;1.88;0.85;;;;;;;;;;4959380;28;20025;-90
2021/07/09 15:41:24;;;;;;;2.60;1.15;;;;;;;;;;4976656;28;20055;-89
2021/07/09 15:43:49;;;;;;;1.45;1.17;;;;;;;;;;4992749;28;20430;-90
2021/07/09 15:46:15;;;;;;;1.20;1.00;;;;;;;;;;4992358;28;20038;-89
2021/07/09 15:48:41;;;;;;;1.98;1.15;;;;;;;;;;4965286;28;20027;-90
2021/07/09 15:51:07;;;;;;;8.18;2.78;;;;;;;;;;4964005;28;20054;-88
2021/07/09 15:53:33;;;;;;;2.03;1.40;;;;;;;;;;4968133;28;20064;-89
2021/07/09 15:55:59;;;;;;;3.95;1.48;;;;;;;;;;4965968;28;20064;-88
2021/07/09 15:58:31;;;;;;;2.03;1.23;;;;;;;;;;4961355;28;20029;-89
2021/07/09 16:00:57;;;;;;;3.28;1.40;;;;;;;;;;4962811;28;20039;-88
2021/07/09 16:03:22;;;;;;;2.63;1.15;;;;;;;;;;4966922;28;20100;-88
2021/07/09 16:05:48;;;;;;;1.52;1.10;;;;;;;;;;4980215;28;20153;-88
2021/07/09 16:08:13;;;;;;;1.42;1.00;;;;;;;;;;4970595;28;20039;-89
2021/07/09 16:10:40;;;;;;;2.45;1.05;;;;;;;;;;4972165;28;20022;-87
2021/07/09 16:13:06;;;;;;;2.90;1.30;;;;;;;;;;4966281;28;20101;-88
2021/07/09 16:15:32;;;;;;;3.92;1.00;;;;;;;;;;4987795;28;20119;-87
2021/07/09 16:17:57;;;;;;;1.60;1.25;;;;;;;;;;4981947;28;20122;-87
2021/07/09 16:20:27;;;;;;;3.17;1.40;;;;;;;;;;4970536;28;20591;-88
2021/07/09 16:22:53;;;;;;;2.33;1.20;;;;;;;;;;4961459;28;20037;-88
2021/07/09 16:25:18;;;;;;;4.70;1.20;;;;;;;;;;4986908;28;20026;-88
2021/07/09 16:27:44;;;;;;;1.58;1.10;;;;;;;;;;4972797;28;20054;-88
2021/07/09 16:30:13;;;;;;;1.52;1.00;;;;;;;;;;4974256;28;20034;-88
2021/07/09 16:32:38;;;;;;;1.20;1.10;;;;;;;;;;4978652;28;20018;-88
2021/07/09 16:35:04;;;;;;;2.20;0.93;;;;;;;;;;4963235;28;20109;-87
2021/07/09 16:37:30;;;;;;;2.15;1.15;;;;;;;;;;4980756;28;20030;-87
2021/07/09 16:39:55;;;;;;;1.67;1.10;;;;;;;;;;4962681;28;20487;-88
2021/07/09 16:42:21;;;;;;;2.70;1.05;;;;;;;;;;4964865;28;20507;-87
2021/07/09 16:44:47;;;;;;;3.55;0.98;;;;;;;;;;4955726;28;20084;-87
2021/07/09 16:47:13;;;;;;;2.10;1.10;;;;;;;;;;4966696;28;20568;-87
2021/07/09 16:49:38;;;;;;;1.25;1.13;;;;;;;;;;4966910;28;20475;-87
2021/07/09 16:52:13;;;;;;;1.33;1.00;;;;;;;;;;4968407;28;20042;-87
2021/07/09 16:54:39;;;;;;;1.30;1.02;;;;;;;;;;4986153;28;20031;-88
2021/07/09 16:57:08;;;;;;;1.40;1.00;;;;;;;;;;4967397;28;20030;-87
2021/07/09 16:59:34;;;;;;;2.00;0.98;;;;;;;;;;4971478;28;20035;-88
2021/07/09 17:02:00;;;;;;;1.85;1.20;;;;;;;;;;4964031;28;20035;-87
2021/07/09 17:04:25;;;;;;;1.38;1.25;;;;;;;;;;4968056;28;20038;-88
2021/07/09 17:06:51;;;;;;;1.40;1.05;;;;;;;;;;4980342;28;20046;-87
2021/07/09 17:09:28;;;;;;;3.67;1.17;;;;;;;;;;4959937;28;20108;-87
2021/07/09 17:11:54;;;;;;;1.05;0.90;;;;;;;;;;4962265;28;20026;-88
2021/07/09 17:14:19;;;;;;;1.48;1.05;;;;;;;;;;4964407;28;20129;-87
2021/07/09 17:16:53;;;;;;;2.50;1.10;;;;;;;;;;4977589;28;20022;-88
2021/07/09 17:19:19;;;;;;;1.38;1.20;;;;;;;;;;4964247;28;20415;-88
2021/07/09 17:21:44;;;;;;;2.53;1.27;;;;;;;;;;4987229;28;20030;-88
2021/07/09 17:24:10;;;;;;;1.27;1.10;;;;;;;;;;4982161;28;20043;-88
2021/07/09 17:26:36;;;;;;;1.80;1.20;;;;;;;;;;4979018;28;20030;-87
2021/07/09 17:29:01;;;;;;;1.60;1.10;;;;;;;;;;4963305;28;20092;-87
2021/07/09 17:31:27;;;;;;;1.40;1.20;;;;;;;;;;4966154;28;20117;-88
2021/07/09 17:33:52;;;;;;;1.60;1.13;;;;;;;;;;4962723;28;20034;-88
2021/07/09 17:36:19;;;;;;;2.90;1.10;;;;;;;;;;4971719;28;20202;-88
2021/07/09 17:38:45;;;;;;;1.88;1.10;;;;;;;;;;4968584;28;20509;-88
2021/07/09 17:41:11;;;;;;;2.50;1.30;;;;;;;;;;4967814;28;20065;-86
2021/07/09 17:43:37;;;;;;;2.25;1.13;;;;;;;;;;4966735;28;20050;-87
2021/07/09 17:46:02;;;;;;;1.15;1.05;;;;;;;;;;4986616;28;20120;-87
2021/07/09 17:48:28;;;;;;;2.78;1.23;;;;;;;;;;4960626;28;20022;-87
2021/07/09 17:50:53;;;;;;;2.70;1.02;;;;;;;;;;4979253;28;20051;-86
2021/07/09 17:53:20;;;;;;;2.35;1.20;;;;;;;;;;4965119;28;20027;-86
2021/07/09 17:55:46;;;;;;;1.50;1.23;;;;;;;;;;4952322;28;20395;-87
2021/07/09 17:58:12;;;;;;;2.20;1.13;;;;;;;;;;4954528;28;20035;-87
2021/07/09 18:00:41;;;;;;;2.45;1.02;;;;;;;;;;4957829;28;20066;-88
2021/07/09 18:03:07;;;;;;;3.00;1.08;;;;;;;;;;4953781;28;21715;-88
2021/07/09 18:05:32;;;;;;;2.60;1.33;;;;;;;;;;4959108;28;20110;-88
2021/07/09 18:07:59;;;;;;;2.45;1.30;;;;;;;;;;4962754;28;20033;-87
2021/07/09 18:10:24;;;;;;;3.35;1.20;;;;;;;;;;4962222;28;20028;-88
2021/07/09 18:12:50;;;;;;;2.53;1.27;;;;;;;;;;4959741;28;20053;-87
2021/07/09 18:15:15;;;;;;;1.60;1.20;;;;;;;;;;4966662;28;20089;-86
2021/07/09 18:17:41;;;;;;;3.03;1.48;;;;;;;;;;4960246;28;20035;-88
2021/07/09 18:20:09;;;;;;;1.25;1.00;;;;;;;;;;4956654;28;20034;-88
2021/07/09 18:22:35;;;;;;;3.45;1.60;;;;;;;;;;4961345;28;20078;-88
2021/07/09 18:25:01;;;;;;;2.17;1.20;;;;;;;;;;4965805;28;20039;-88
2021/07/09 18:27:27;;;;;;;8.35;1.50;;;;;;;;;;4961740;28;20058;-87
2021/07/09 18:29:53;;;;;;;1.92;1.67;;;;;;;;;;4961055;28;20030;-87
2021/07/09 18:32:19;;;;;;;2.42;1.60;;;;;;;;;;4957084;28;20028;-87
2021/07/09 18:34:44;;;;;;;2.05;1.48;;;;;;;;;;4961626;28;20031;-88
2021/07/09 18:37:12;;;;;;;6.47;2.22;;;;;;;;;;4958965;28;20051;-89
2021/07/09 18:39:38;;;;;;;1.95;1.20;;;;;;;;;;4962310;28;20372;-89
2021/07/09 18:42:04;;;;;;;3.58;1.40;;;;;;;;;;4961978;28;20031;-89
2021/07/09 18:44:29;;;;;;;3.47;1.80;;;;;;;;;;4962497;28;20039;-88
2021/07/09 18:46:55;;;;;;;2.63;1.17;;;;;;;;;;4954914;28;20035;-88
2021/07/09 18:49:20;;;;;;;1.40;1.30;;;;;;;;;;4961889;28;20077;-88
2021/07/09 18:51:46;;;;;;;2.80;1.35;;;;;;;;;;4970472;28;20088;-91
2021/07/09 18:54:22;;;;;;;2.53;1.58;;;;;;;;;;4970966;28;20394;-87
2021/07/09 18:56:52;;;;;;;1.77;1.40;;;;;;;;;;4967132;28;20038;-89
2021/07/09 18:59:19;;;;;;;;;;;;;;;;;;4989453;28;20030;-88
2021/07/09 19:01:46;;;;;;;3.67;1.40;;;;;;;;;;4989555;28;19914;-89
2021/07/09 19:04:12;;;;;;;3.60;1.90;;;;;;;;;;4988635;28;20119;-89
2021/07/09 19:06:40;;;;;;;2.58;1.63;;;;;;;;;;4987553;28;20037;-90
2021/07/09 19:09:06;;;;;;;3.78;1.50;;;;;;;;;;4970283;28;20041;-89
2021/07/09 19:11:31;;;;;;;4.35;1.70;;;;;;;;;;4965109;28;20035;-89
2021/07/09 19:13:58;;;;;;;2.08;1.40;;;;;;;;;;4968633;28;20238;-89
2021/07/09 19:16:25;;;;;;;3.92;1.60;;;;;;;;;;4961759;28;20058;-88
2021/07/09 19:18:58;;;;;;;2.60;1.90;;;;;;;;;;4964669;28;20037;-89
2021/07/09 19:21:28;;;;;;;3.75;2.00;;;;;;;;;;4981152;28;20525;-89
2021/07/09 19:23:54;;;;;;;6.70;2.00;;;;;;;;;;4963881;28;20039;-89
2021/07/09 19:26:20;;;;;;;2.78;2.00;;;;;;;;;;4966527;28;20121;-89
2021/07/09 19:28:49;;;;;;;9.43;4.35;;;;;;;;;;4967144;28;20521;-89
2021/07/09 19:31:14;;;;;;;3.40;2.60;;;;;;;;;;4952392;28;20077;-91
2021/07/09 19:33:40;;;;;;;2.78;2.00;;;;;;;;;;4962740;28;20077;-90
2021/07/09 19:36:05;;;;;;;3.38;2.03;;;;;;;;;;4977060;28;20038;-92
2021/07/09 19:38:32;;;;;;;3.42;1.50;;;;;;;;;;4965044;28;20050;-90
2021/07/09 19:41:00;;;;;;;3.50;1.70;;;;;;;;;;4980779;28;20030;-92
2021/07/09 19:43:27;;;;;;;2.53;1.48;;;;;;;;;;4968414;28;20034;-92
2021/07/09 19:45:54;;;;;;;70.57;7.53;;;;;;;;;;4958545;28;20042;-93
2021/07/09 19:48:21;;;;;;;2.38;1.50;;;;;;;;;;4968854;28;20030;-91
2021/07/09 19:50:48;;;;;;;3.72;1.70;;;;;;;;;;4989487;28;20481;-92
2021/07/09 19:53:14;;;;;;;6.78;1.48;;;;;;;;;;4981850;28;20057;-91
2021/07/09 19:55:59;;;;;;;2.92;1.40;;;;;;;;;;4990626;28;20420;-93
2021/07/09 19:58:26;;;;;;;3.33;1.42;;;;;;;;;;4959189;28;20042;-91
2021/07/09 20:00:51;;;;;;;1.60;1.40;;;;;;;;;;4984821;28;20042;-91
2021/07/09 20:03:17;;;;;;;2.30;1.58;;;;;;;;;;4987636;28;20033;-93
2021/07/09 20:05:43;;;;;;;11.60;6.28;;;;;;;;;;4973648;28;20030;-93
2021/07/09 20:08:09;;;;;;;3.88;2.20;;;;;;;;;;4973770;28;20046;-94
2021/07/09 20:10:35;;;;;;;1.75;1.55;;;;;;;;;;4969741;28;20410;-91
2021/07/09 20:13:02;;;;;;;2.65;1.80;;;;;;;;;;4965786;28;20029;-91
2021/07/09 20:15:37;;;;;;;2.13;1.70;;;;;;;;;;4984633;28;20106;-92
2021/07/09 20:18:10;;;;;;;3.42;1.88;;;;;;;;;;4969367;28;20117;-92
2021/07/09 20:20:40;;;;;;;2.83;1.65;;;;;;;;;;4971252;28;20490;-91
2021/07/09 20:23:08;;;;;;;3.10;1.98;;;;;;;;;;4970243;28;20030;-91
2021/07/09 20:25:34;;;;;;;2.75;1.70;;;;;;;;;;4967529;28;20070;-92
2021/07/09 20:28:01;;;;;;;3.50;2.00;;;;;;;;;;4966673;28;20109;-92
2021/07/09 20:30:28;;;;;;;3.03;1.85;;;;;;;;;;4990820;28;20034;-91
2021/07/09 20:32:54;;;;;;;5.30;2.20;;;;;;;;;;4964222;28;20410;-91
2021/07/09 20:35:21;;;;;;;9.15;2.70;;;;;;;;;;4967091;28;20042;-91
2021/07/09 20:37:48;;;;;;;12.65;3.03;;;;;;;;;;4982594;28;20456;-93
2021/07/09 20:40:18;;;;;;;7.70;2.45;;;;;;;;;;4964110;28;20026;-94
2021/07/09 20:42:48;;;;;;;4.28;2.35;;;;;;;;;;4968592;28;20533;-93
2021/07/09 20:45:15;;;;;;;4.03;2.47;;;;;;;;;;4971962;28;20030;-93
2021/07/09 20:47:43;;;;;;;4.95;2.55;;;;;;;;;;4973428;28;20093;-93
2021/07/09 20:50:10;;;;;;;3.45;2.60;;;;;;;;;;4988618;28;20038;-92
2021/07/09 20:52:37;;;;;;;5.53;2.63;;;;;;;;;;4964092;28;20506;-89
2021/07/09 20:55:04;;;;;;;7.30;2.80;;;;;;;;;;4972053;28;20030;-89
2021/07/09 20:57:30;;;;;;;5.35;2.85;;;;;;;;;;4974549;28;20057;-89
2021/07/09 20:59:56;;;;;;;5.80;3.63;;;;;;;;;;4986874;28;20890;-89
2021/07/09 21:02:22;;;;;;;10.00;3.40;;;;;;;;;;4974466;28;20505;-92
2021/07/09 21:04:48;;;;;;;4.32;2.47;;;;;;;;;;4977625;28;20070;-91
2021/07/09 21:07:13;;;;;;;39.78;17.98;;;;;;;;;;4978625;28;20076;-91
2021/07/09 21:09:39;;;;;;;6.65;2.90;;;;;;;;;;4978125;28;20113;-91
2021/07/09 21:12:04;;;;;;;6.28;2.78;;;;;;;;;;4978039;28;20493;-90
2021/07/09 21:14:33;;;;;;;3.72;2.75;;;;;;;;;;4982196;28;20056;-90
